createdAt,value
2023-05-02T00:00:25.945Z,13.60
2023-05-02T00:05:29.002Z,13.57
2023-05-02T00:10:32.265Z,11.13
2023-05-02T00:15:36.687Z,13.53
2023-05-02T00:20:41.276Z,12.53
2023-05-02T00:25:46.615Z,11.97
2023-05-02T00:30:51.067Z,13.30
2023-05-02T00:35:54.302Z,13.37
2023-05-02T00:40:57.838Z,13.97
2023-05-02T00:46:02.305Z,10.63
2023-05-02T00:51:06.499Z,12.30
2023-05-02T00:56:09.875Z,13.73
2023-05-02T01:01:27.895Z,12.10
2023-05-02T01:06:41.207Z,16.47
2023-05-02T01:11:50.140Z,14.37
2023-05-02T01:16:56.704Z,16.80
2023-05-02T01:22:01.183Z,18.17
2023-05-02T01:27:25.919Z,14.93
2023-05-02T01:32:33.570Z,16.60
2023-05-02T01:37:39.261Z,14.63
2023-05-02T01:42:43.700Z,11.70
2023-05-02T01:47:48.872Z,11.33
2023-05-02T01:52:54.730Z,7.23
2023-05-02T01:57:58.783Z,8.73
2023-05-02T02:03:04.155Z,10.67
2023-05-02T02:08:07.249Z,14.33
2023-05-02T02:13:18.306Z,16.17
2023-05-02T02:18:25.275Z,15.70
2023-05-02T02:23:30.246Z,14.93
2023-05-02T02:28:35.326Z,13.10
2023-05-02T02:33:40.000Z,10.80
2023-05-02T02:38:48.886Z,13.20
2023-05-02T02:44:03.250Z,9.70
2023-05-02T02:49:19.906Z,13.90
2023-05-02T02:54:30.731Z,12.77
2023-05-02T02:59:36.475Z,12.53
2023-05-02T03:04:45.198Z,9.77
2023-05-02T03:09:49.823Z,15.10
2023-05-02T03:15:08.140Z,4.57
2023-05-02T03:20:14.109Z,6.37
2023-05-02T03:25:17.375Z,7.33
2023-05-02T03:30:23.641Z,4.87
2023-05-02T03:35:28.453Z,5.93
2023-05-02T03:40:31.450Z,3.90
2023-05-02T03:45:35.771Z,9.00
2023-05-02T03:50:40.215Z,4.83
2023-05-02T03:55:44.481Z,4.87
2023-05-02T04:00:54.739Z,3.20
2023-05-02T04:06:00.426Z,4.07
2023-05-02T04:11:04.126Z,5.23
2023-05-02T04:16:08.020Z,5.80
2023-05-02T04:21:13.811Z,5.77
2023-05-02T04:26:18.870Z,5.20
2023-05-02T04:31:34.535Z,5.67
2023-05-02T04:36:39.267Z,8.37
2023-05-02T04:41:44.449Z,5.73
2023-05-02T04:46:47.607Z,7.30
2023-05-02T04:51:52.741Z,6.80
2023-05-02T04:56:57.964Z,6.50
2023-05-02T05:02:01.450Z,5.60
2023-05-02T05:07:05.936Z,8.57
2023-05-02T05:12:09.178Z,6.97
2023-05-02T05:17:13.733Z,8.93
2023-05-02T05:22:18.430Z,6.37
2023-05-02T05:27:22.150Z,4.03
2023-05-02T05:32:26.029Z,7.87
2023-05-02T05:37:31.501Z,5.77
2023-05-02T05:42:36.562Z,4.40
2023-05-02T05:47:45.123Z,5.47
2023-05-02T05:52:50.596Z,8.27
2023-05-02T05:57:54.198Z,9.07
2023-05-02T06:02:57.728Z,8.00
2023-05-02T06:08:05.321Z,9.60
2023-05-02T06:13:08.734Z,9.53
2023-05-02T06:18:16.370Z,8.70
2023-05-02T06:23:21.164Z,6.63
2023-05-02T06:28:24.282Z,9.80
2023-05-02T06:33:27.316Z,11.97
2023-05-02T06:38:31.629Z,8.83
2023-05-02T06:43:34.973Z,10.20
2023-05-02T06:48:37.929Z,10.07
2023-05-02T06:53:42.717Z,5.00
2023-05-02T06:58:45.835Z,10.47
2023-05-02T07:03:48.891Z,8.47
2023-05-02T07:08:53.271Z,8.80
2023-05-02T07:13:56.276Z,8.13
2023-05-02T07:18:59.440Z,9.03
2023-05-02T07:24:04.009Z,7.47
2023-05-02T07:29:09.783Z,4.57
2023-05-02T07:34:12.885Z,5.27
2023-05-02T07:39:17.439Z,3.30
2023-05-02T07:44:20.631Z,6.67
2023-05-02T07:49:23.571Z,7.33
2023-05-02T07:54:28.037Z,5.97
2023-05-02T07:59:32.161Z,4.77
2023-05-02T08:04:35.840Z,4.47
2023-05-02T08:09:40.481Z,5.33
2023-05-02T08:14:43.432Z,6.60
2023-05-02T08:19:46.697Z,9.03
2023-05-02T08:24:51.260Z,6.47
2023-05-02T08:29:54.400Z,7.83
2023-05-02T08:34:58.004Z,4.80
2023-05-02T08:40:03.170Z,8.37
2023-05-02T08:45:09.679Z,4.50
2023-05-02T08:50:13.030Z,4.57
2023-05-02T08:55:17.916Z,8.10
2023-05-02T09:00:21.325Z,5.07
2023-05-02T09:05:26.419Z,5.17
2023-05-02T09:10:32.593Z,9.03
2023-05-02T09:15:35.759Z,2.87
2023-05-02T09:20:44.641Z,4.97
2023-05-02T09:25:49.456Z,6.17
2023-05-02T09:30:52.702Z,4.13
2023-05-02T09:35:56.628Z,3.83
2023-05-02T09:41:03.366Z,9.53
2023-05-02T09:46:08.428Z,2.70
2023-05-02T09:51:21.163Z,5.10
2023-05-02T09:56:26.183Z,3.33
2023-05-02T10:01:29.692Z,5.03
2023-05-02T10:06:34.294Z,8.38
2023-05-02T10:11:41.034Z,1.98
2023-05-02T10:16:55.111Z,2.42
2023-05-02T10:22:00.585Z,5.50
2023-05-02T10:27:06.129Z,3.90
2023-05-02T10:32:10.515Z,3.00
2023-05-02T10:37:13.992Z,3.47
2023-05-02T10:42:21.215Z,4.03
2023-05-02T10:47:25.389Z,4.25
2023-05-02T10:52:30.437Z,4.67
2023-05-02T10:57:35.001Z,4.78
2023-05-02T11:02:52.958Z,3.35
2023-05-02T11:08:29.473Z,3.70
2023-05-02T11:13:51.828Z,3.22
2023-05-02T11:19:01.867Z,4.93
2023-05-02T11:24:41.716Z,3.30
2023-05-02T11:29:55.600Z,3.30
2023-05-02T11:34:59.076Z,2.95
2023-05-02T11:40:12.131Z,4.03
2023-05-02T11:45:17.030Z,3.78
2023-05-02T11:50:20.105Z,2.80
2023-05-02T11:55:23.502Z,4.88
2023-05-02T12:00:29.831Z,6.03
2023-05-02T12:05:33.492Z,5.88
2023-05-02T12:10:39.947Z,4.25
2023-05-02T12:15:44.863Z,5.35
2023-05-02T12:20:48.624Z,3.70
2023-05-02T12:25:51.671Z,5.82
2023-05-02T12:30:56.638Z,3.17
2023-05-02T12:36:08.149Z,5.07
2023-05-02T12:41:11.707Z,5.05
2023-05-02T12:46:17.411Z,6.22
2023-05-02T12:51:24.834Z,4.05
2023-05-02T12:56:32.534Z,4.93
2023-05-02T13:01:37.453Z,5.57
2023-05-02T13:06:40.936Z,4.28
2023-05-02T13:11:44.008Z,8.77
2023-05-02T13:16:50.577Z,6.70
2023-05-02T13:21:53.673Z,5.18
2023-05-02T13:26:56.572Z,5.68
2023-05-02T13:32:01.042Z,4.82
2023-05-02T13:37:04.354Z,5.20
2023-05-02T13:42:08.079Z,7.68
2023-05-02T13:47:12.641Z,5.18
2023-05-02T13:52:15.741Z,7.85
2023-05-02T13:57:18.732Z,8.60
2023-05-02T14:02:23.720Z,7.72
2023-05-02T14:07:26.858Z,5.60
2023-05-02T14:12:29.868Z,6.45
2023-05-02T14:17:34.439Z,7.68
2023-05-02T14:22:37.452Z,6.95
2023-05-02T14:27:40.516Z,10.23
2023-05-02T14:32:44.942Z,5.70
2023-05-02T14:37:48.449Z,5.75
2023-05-02T14:42:51.992Z,6.90
2023-05-02T14:47:57.885Z,6.30
2023-05-02T14:53:00.886Z,6.00
2023-05-02T14:58:03.821Z,9.98
2023-05-02T15:03:09.920Z,11.05
2023-05-02T15:08:13.151Z,9.95
2023-05-02T15:13:16.339Z,6.82
2023-05-02T15:18:21.587Z,8.88
2023-05-02T15:23:24.963Z,7.90
2023-05-02T15:28:28.014Z,14.13
2023-05-02T15:33:32.499Z,11.05
2023-05-02T15:38:39.681Z,8.45
2023-05-02T15:43:42.728Z,6.90
2023-05-02T15:48:47.151Z,5.65
2023-05-02T15:53:52.467Z,7.47
2023-05-02T15:58:55.688Z,7.25
2023-05-02T16:04:00.307Z,8.85
2023-05-02T16:09:03.873Z,10.32
2023-05-02T16:14:07.188Z,7.75
2023-05-02T16:19:13.453Z,6.65
2023-05-02T16:24:16.603Z,7.13
2023-05-02T16:29:19.554Z,10.88
2023-05-02T16:34:23.929Z,7.65
2023-05-02T16:39:27.547Z,4.88
2023-05-02T16:44:31.416Z,7.55
2023-05-02T16:49:36.025Z,9.07
2023-05-02T16:54:39.050Z,6.13
2023-05-02T16:59:42.169Z,6.20
2023-05-02T17:04:46.657Z,7.18
2023-05-02T17:09:54.581Z,9.38
2023-05-02T17:14:57.968Z,8.02
2023-05-02T17:20:02.729Z,7.27
2023-05-02T17:25:06.486Z,10.48
2023-05-02T17:30:10.864Z,7.68
2023-05-02T17:35:16.385Z,5.30
2023-05-02T17:40:20.324Z,5.53
2023-05-02T17:45:23.352Z,7.93
2023-05-02T17:50:30.073Z,6.13
2023-05-02T17:55:33.228Z,6.70
2023-05-02T18:00:36.461Z,3.97
2023-05-02T18:05:44.131Z,4.67
2023-05-02T18:10:47.773Z,4.73
2023-05-02T18:15:56.777Z,3.87
2023-05-02T18:21:01.761Z,4.23
2023-05-02T18:26:05.068Z,3.67
2023-05-02T18:31:08.167Z,4.20
2023-05-02T18:36:12.602Z,3.03
2023-05-02T18:41:16.253Z,3.73
2023-05-02T18:46:19.269Z,4.13
2023-05-02T18:51:23.806Z,2.77
2023-05-02T18:56:26.793Z,2.70
2023-05-02T19:01:30.170Z,4.30
2023-05-02T19:06:34.612Z,5.40
2023-05-02T19:11:37.801Z,4.27
2023-05-02T19:16:41.153Z,4.60
2023-05-02T19:21:48.400Z,4.07
2023-05-02T19:26:51.507Z,2.43
2023-05-02T19:31:54.531Z,8.13
2023-05-02T19:36:59.512Z,4.87
2023-05-02T19:42:03.288Z,3.73
2023-05-02T19:47:06.646Z,5.17
2023-05-02T19:52:11.158Z,4.13
2023-05-02T19:57:14.417Z,5.00
2023-05-02T20:02:17.898Z,2.70
2023-05-02T20:07:22.356Z,4.50
2023-05-02T20:12:25.491Z,3.30
2023-05-02T20:17:29.338Z,3.20
2023-05-02T20:22:34.728Z,4.17
2023-05-02T20:27:38.083Z,3.90
2023-05-02T20:32:41.192Z,2.33
2023-05-02T20:37:52.247Z,2.40
2023-05-02T20:42:56.895Z,4.47
2023-05-02T20:48:00.328Z,1.53
2023-05-02T20:53:05.573Z,2.43
2023-05-02T20:58:08.668Z,2.23
2023-05-02T21:03:11.729Z,2.50
2023-05-02T21:08:16.305Z,1.57
2023-05-02T21:13:19.459Z,2.37
2023-05-02T21:18:22.784Z,3.60
2023-05-02T21:23:27.244Z,2.07
2023-05-02T21:28:30.375Z,5.73
2023-05-02T21:33:33.346Z,3.67
2023-05-02T21:38:37.808Z,4.93
2023-05-02T21:43:41.497Z,1.77
2023-05-02T21:48:44.549Z,1.73
2023-05-02T21:53:49.762Z,5.77
2023-05-02T21:58:52.911Z,2.30
2023-05-02T22:03:55.924Z,2.30
2023-05-02T22:09:00.374Z,4.43
2023-05-02T22:14:03.457Z,2.10
2023-05-02T22:19:06.470Z,3.90
2023-05-02T22:24:11.219Z,3.50
2023-05-02T22:29:14.240Z,1.93
2023-05-02T22:34:17.540Z,3.47
2023-05-02T22:39:21.945Z,3.47
2023-05-02T22:44:24.981Z,3.07
2023-05-02T22:49:28.821Z,4.47
2023-05-02T22:54:33.269Z,2.07
2023-05-02T22:59:36.660Z,3.20
2023-05-02T23:04:39.733Z,3.97
2023-05-02T23:09:44.171Z,3.07
2023-05-02T23:14:47.283Z,3.17
2023-05-02T23:19:50.652Z,2.57
2023-05-02T23:24:55.103Z,3.73
2023-05-02T23:29:58.140Z,4.67
2023-05-02T23:35:01.948Z,2.97
2023-05-02T23:40:09.238Z,4.13
2023-05-02T23:45:13.374Z,6.40
2023-05-02T23:50:16.695Z,4.67
2023-05-02T23:55:21.133Z,3.37
